sensor_id;sensor_type;location;lat;lon;timestamp;P1;durP1;ratioP1;P2;durP2;ratioP2
3523;SDS011;1776;53.330;11.498;2023-03-01T00:00:50;12.97;;;6.20;;
3523;SDS011;1776;53.330;11.498;2023-03-01T00:03:16;10.73;;;5.90;;
3523;SDS011;1776;53.330;11.498;2023-03-01T00:05:45;9.07;;;6.77;;
3523;SDS011;1776;53.330;11.498;2023-03-01T00:08:11;9.17;;;5.67;;
3523;SDS011;1776;53.330;11.498;2023-03-01T00:10:36;13.97;;;5.87;;
3523;SDS011;1776;53.330;11.498;2023-03-01T00:13:02;12.23;;;5.90;;
3523;SDS011;1776;53.330;11.498;2023-03-01T00:15:30;11.60;;;6.57;;
3523;SDS011;1776;53.330;11.498;2023-03-01T00:17:55;11.80;;;6.93;;
3523;SDS011;1776;53.330;11.498;2023-03-01T00:20:20;11.73;;;6.60;;
3523;SDS011;1776;53.330;11.498;2023-03-01T00:22:46;12.20;;;6.37;;
3523;SDS011;1776;53.330;11.498;2023-03-01T00:25:11;9.87;;;6.07;;
3523;SDS011;1776;53.330;11.498;2023-03-01T00:27:36;12.33;;;6.23;;
3523;SDS011;1776;53.330;11.498;2023-03-01T00:30:02;9.30;;;6.27;;
3523;SDS011;1776;53.330;11.498;2023-03-01T00:32:27;9.90;;;5.73;;
3523;SDS011;1776;53.330;11.498;2023-03-01T00:34:52;13.10;;;6.50;;
3523;SDS011;1776;53.330;11.498;2023-03-01T00:37:21;13.13;;;6.93;;
3523;SDS011;1776;53.330;11.498;2023-03-01T00:39:47;9.40;;;6.00;;
3523;SDS011;1776;53.330;11.498;2023-03-01T00:42:12;10.27;;;5.27;;
3523;SDS011;1776;53.330;11.498;2023-03-01T00:44:38;10.53;;;5.10;;
3523;SDS011;1776;53.330;11.498;2023-03-01T00:47:03;8.43;;;5.23;;
3523;SDS011;1776;53.330;11.498;2023-03-01T00:49:28;10.93;;;5.63;;
3523;SDS011;1776;53.330;11.498;2023-03-01T00:51:54;9.13;;;5.57;;
3523;SDS011;1776;53.330;11.498;2023-03-01T00:54:19;8.93;;;4.90;;
3523;SDS011;1776;53.330;11.498;2023-03-01T00:56:44;7.67;;;5.00;;
3523;SDS011;1776;53.330;11.498;2023-03-01T00:59:09;8.20;;;5.23;;
3523;SDS011;1776;53.330;11.498;2023-03-01T01:01:35;6.37;;;4.63;;
3523;SDS011;1776;53.330;11.498;2023-03-01T01:04:01;9.20;;;4.87;;
3523;SDS011;1776;53.330;11.498;2023-03-01T01:06:34;9.30;;;4.67;;
3523;SDS011;1776;53.330;11.498;2023-03-01T01:09:02;11.07;;;5.40;;
3523;SDS011;1776;53.330;11.498;2023-03-01T01:11:29;7.65;;;4.40;;
3523;SDS011;1776;53.330;11.498;2023-03-01T01:13:55;6.93;;;4.47;;
3523;SDS011;1776;53.330;11.498;2023-03-01T01:16:22;8.50;;;4.90;;
3523;SDS011;1776;53.330;11.498;2023-03-01T01:18:49;6.23;;;4.30;;
3523;SDS011;1776;53.330;11.498;2023-03-01T01:21:16;8.17;;;4.70;;
3523;SDS011;1776;53.330;11.498;2023-03-01T01:23:42;6.00;;;3.93;;
3523;SDS011;1776;53.330;11.498;2023-03-01T01:26:10;6.47;;;3.70;;
3523;SDS011;1776;53.330;11.498;2023-03-01T01:28:44;6.00;;;3.80;;
3523;SDS011;1776;53.330;11.498;2023-03-01T01:31:09;8.87;;;4.10;;
3523;SDS011;1776;53.330;11.498;2023-03-01T01:33:35;5.00;;;4.50;;
3523;SDS011;1776;53.330;11.498;2023-03-01T01:36:02;8.57;;;4.40;;
3523;SDS011;1776;53.330;11.498;2023-03-01T01:38:28;4.83;;;3.40;;
3523;SDS011;1776;53.330;11.498;2023-03-01T01:40:53;5.37;;;4.30;;
3523;SDS011;1776;53.330;11.498;2023-03-01T01:43:27;7.10;;;3.90;;
3523;SDS011;1776;53.330;11.498;2023-03-01T01:46:04;15.23;;;4.10;;
3523;SDS011;1776;53.330;11.498;2023-03-01T01:48:48;6.00;;;3.37;;
3523;SDS011;1776;53.330;11.498;2023-03-01T01:51:23;5.80;;;3.53;;
3523;SDS011;1776;53.330;11.498;2023-03-01T01:53:53;4.50;;;3.57;;
3523;SDS011;1776;53.330;11.498;2023-03-01T01:56:23;5.77;;;3.33;;
3523;SDS011;1776;53.330;11.498;2023-03-01T01:58:51;8.17;;;4.60;;
3523;SDS011;1776;53.330;11.498;2023-03-01T02:01:17;8.00;;;4.33;;
3523;SDS011;1776;53.330;11.498;2023-03-01T02:03:42;5.90;;;4.30;;
3523;SDS011;1776;53.330;11.498;2023-03-01T02:06:19;8.40;;;5.47;;
3523;SDS011;1776;53.330;11.498;2023-03-01T02:08:53;14.87;;;5.63;;
3523;SDS011;1776;53.330;11.498;2023-03-01T02:11:22;5.90;;;3.77;;
3523;SDS011;1776;53.330;11.498;2023-03-01T02:13:47;5.57;;;3.90;;
3523;SDS011;1776;53.330;11.498;2023-03-01T02:16:14;4.53;;;3.60;;
3523;SDS011;1776;53.330;11.498;2023-03-01T02:18:40;7.50;;;4.53;;
3523;SDS011;1776;53.330;11.498;2023-03-01T02:21:19;7.60;;;4.07;;
3523;SDS011;1776;53.330;11.498;2023-03-01T02:23:46;5.87;;;4.90;;
3523;SDS011;1776;53.330;11.498;2023-03-01T02:26:19;6.30;;;4.50;;
3523;SDS011;1776;53.330;11.498;2023-03-01T02:28:52;7.07;;;4.30;;
3523;SDS011;1776;53.330;11.498;2023-03-01T02:31:18;7.77;;;4.53;;
3523;SDS011;1776;53.330;11.498;2023-03-01T02:34:04;5.57;;;3.90;;
3523;SDS011;1776;53.330;11.498;2023-03-01T02:36:31;5.50;;;4.70;;
3523;SDS011;1776;53.330;11.498;2023-03-01T02:39:02;8.50;;;4.93;;
3523;SDS011;1776;53.330;11.498;2023-03-01T02:44:52;10.60;;;5.87;;
3523;SDS011;1776;53.330;11.498;2023-03-01T02:47:18;9.67;;;5.13;;
3523;SDS011;1776;53.330;11.498;2023-03-01T02:49:43;6.40;;;4.50;;
3523;SDS011;1776;53.330;11.498;2023-03-01T02:55:09;8.30;;;5.50;;
3523;SDS011;1776;53.330;11.498;2023-03-01T02:57:38;8.10;;;5.53;;
3523;SDS011;1776;53.330;11.498;2023-03-01T03:00:15;8.70;;;6.20;;
3523;SDS011;1776;53.330;11.498;2023-03-01T03:02:49;10.30;;;6.00;;
3523;SDS011;1776;53.330;11.498;2023-03-01T03:05:18;9.60;;;6.28;;
3523;SDS011;1776;53.330;11.498;2023-03-01T03:07:46;10.20;;;6.30;;
3523;SDS011;1776;53.330;11.498;2023-03-01T03:10:32;9.10;;;6.63;;
3523;SDS011;1776;53.330;11.498;2023-03-01T03:13:04;7.50;;;5.90;;
3523;SDS011;1776;53.330;11.498;2023-03-01T03:15:34;10.77;;;6.28;;
3523;SDS011;1776;53.330;11.498;2023-03-01T03:18:02;10.37;;;6.23;;
3523;SDS011;1776;53.330;11.498;2023-03-01T03:20:29;8.95;;;5.82;;
3523;SDS011;1776;53.330;11.498;2023-03-01T03:22:55;13.57;;;5.97;;
3523;SDS011;1776;53.330;11.498;2023-03-01T03:25:24;13.25;;;5.32;;
3523;SDS011;1776;53.330;11.498;2023-03-01T03:27:50;7.40;;;5.72;;
3523;SDS011;1776;53.330;11.498;2023-03-01T03:30:21;6.72;;;5.07;;
3523;SDS011;1776;53.330;11.498;2023-03-01T03:32:48;11.32;;;6.55;;
3523;SDS011;1776;53.330;11.498;2023-03-01T03:35:20;9.32;;;5.78;;
3523;SDS011;1776;53.330;11.498;2023-03-01T03:37:49;11.52;;;5.18;;
3523;SDS011;1776;53.330;11.498;2023-03-01T03:40:33;9.82;;;6.07;;
3523;SDS011;1776;53.330;11.498;2023-03-01T03:42:59;10.57;;;6.85;;
3523;SDS011;1776;53.330;11.498;2023-03-01T03:45:24;11.20;;;5.70;;
3523;SDS011;1776;53.330;11.498;2023-03-01T03:47:49;7.43;;;5.13;;
3523;SDS011;1776;53.330;11.498;2023-03-01T03:50:15;12.90;;;6.40;;
3523;SDS011;1776;53.330;11.498;2023-03-01T03:52:42;10.50;;;6.05;;
3523;SDS011;1776;53.330;11.498;2023-03-01T03:55:08;7.47;;;5.20;;
3523;SDS011;1776;53.330;11.498;2023-03-01T03:57:38;7.83;;;5.17;;
3523;SDS011;1776;53.330;11.498;2023-03-01T04:00:05;7.53;;;5.03;;
3523;SDS011;1776;53.330;11.498;2023-03-01T04:02:38;7.77;;;4.97;;
3523;SDS011;1776;53.330;11.498;2023-03-01T04:05:07;8.55;;;5.38;;
3523;SDS011;1776;53.330;11.498;2023-03-01T04:07:34;10.17;;;5.80;;
3523;SDS011;1776;53.330;11.498;2023-03-01T04:10:02;9.03;;;5.33;;
3523;SDS011;1776;53.330;11.498;2023-03-01T04:12:28;10.50;;;5.53;;
3523;SDS011;1776;53.330;11.498;2023-03-01T04:14:53;12.20;;;6.53;;
3523;SDS011;1776;53.330;11.498;2023-03-01T04:17:19;10.43;;;5.40;;
3523;SDS011;1776;53.330;11.498;2023-03-01T04:19:44;12.30;;;6.37;;
3523;SDS011;1776;53.330;11.498;2023-03-01T04:22:13;8.60;;;6.53;;
3523;SDS011;1776;53.330;11.498;2023-03-01T04:24:43;13.67;;;6.47;;
3523;SDS011;1776;53.330;11.498;2023-03-01T04:27:11;8.80;;;5.73;;
3523;SDS011;1776;53.330;11.498;2023-03-01T04:29:36;9.97;;;4.90;;
3523;SDS011;1776;53.330;11.498;2023-03-01T04:32:02;9.50;;;5.63;;
3523;SDS011;1776;53.330;11.498;2023-03-01T04:34:28;12.10;;;5.30;;
3523;SDS011;1776;53.330;11.498;2023-03-01T04:36:54;9.23;;;5.40;;
3523;SDS011;1776;53.330;11.498;2023-03-01T04:39:19;9.80;;;4.67;;
3523;SDS011;1776;53.330;11.498;2023-03-01T04:41:44;8.33;;;5.73;;
3523;SDS011;1776;53.330;11.498;2023-03-01T04:44:10;7.43;;;4.93;;
3523;SDS011;1776;53.330;11.498;2023-03-01T04:46:36;10.13;;;5.83;;
3523;SDS011;1776;53.330;11.498;2023-03-01T04:49:02;7.93;;;4.63;;
3523;SDS011;1776;53.330;11.498;2023-03-01T04:51:28;8.50;;;4.75;;
3523;SDS011;1776;53.330;11.498;2023-03-01T04:53:53;7.50;;;5.67;;
3523;SDS011;1776;53.330;11.498;2023-03-01T04:56:19;8.13;;;4.50;;
3523;SDS011;1776;53.330;11.498;2023-03-01T04:58:44;11.10;;;5.87;;
3523;SDS011;1776;53.330;11.498;2023-03-01T05:01:11;7.27;;;5.13;;
3523;SDS011;1776;53.330;11.498;2023-03-01T05:03:44;7.70;;;5.37;;
3523;SDS011;1776;53.330;11.498;2023-03-01T05:06:10;9.37;;;5.60;;
3523;SDS011;1776;53.330;11.498;2023-03-01T05:08:37;11.87;;;7.10;;
3523;SDS011;1776;53.330;11.498;2023-03-01T05:11:03;13.80;;;8.17;;
3523;SDS011;1776;53.330;11.498;2023-03-01T05:13:28;19.67;;;7.57;;
3523;SDS011;1776;53.330;11.498;2023-03-01T05:15:57;15.57;;;8.20;;
3523;SDS011;1776;53.330;11.498;2023-03-01T05:18:25;14.80;;;7.70;;
3523;SDS011;1776;53.330;11.498;2023-03-01T05:20:52;14.67;;;7.20;;
3523;SDS011;1776;53.330;11.498;2023-03-01T05:23:21;10.80;;;7.30;;
3523;SDS011;1776;53.330;11.498;2023-03-01T05:25:46;12.90;;;6.87;;
3523;SDS011;1776;53.330;11.498;2023-03-01T05:28:11;10.77;;;7.10;;
3523;SDS011;1776;53.330;11.498;2023-03-01T05:30:37;17.97;;;7.40;;
3523;SDS011;1776;53.330;11.498;2023-03-01T05:33:06;12.50;;;6.90;;
3523;SDS011;1776;53.330;11.498;2023-03-01T05:35:38;9.67;;;6.10;;
3523;SDS011;1776;53.330;11.498;2023-03-01T05:38:04;13.37;;;7.67;;
3523;SDS011;1776;53.330;11.498;2023-03-01T05:40:29;11.20;;;6.00;;
3523;SDS011;1776;53.330;11.498;2023-03-01T05:42:55;10.13;;;5.27;;
3523;SDS011;1776;53.330;11.498;2023-03-01T05:45:22;7.33;;;4.90;;
3523;SDS011;1776;53.330;11.498;2023-03-01T05:47:49;11.40;;;6.77;;
3523;SDS011;1776;53.330;11.498;2023-03-01T05:50:16;9.33;;;5.80;;
3523;SDS011;1776;53.330;11.498;2023-03-01T05:52:45;9.10;;;5.80;;
3523;SDS011;1776;53.330;11.498;2023-03-01T05:55:11;12.10;;;6.03;;
3523;SDS011;1776;53.330;11.498;2023-03-01T05:57:36;14.10;;;8.37;;
3523;SDS011;1776;53.330;11.498;2023-03-01T06:00:02;22.23;;;12.13;;
3523;SDS011;1776;53.330;11.498;2023-03-01T06:02:28;18.73;;;10.07;;
3523;SDS011;1776;53.330;11.498;2023-03-01T06:04:54;20.02;;;8.88;;
3523;SDS011;1776;53.330;11.498;2023-03-01T06:07:19;11.93;;;8.20;;
3523;SDS011;1776;53.330;11.498;2023-03-01T06:09:44;20.77;;;9.50;;
3523;SDS011;1776;53.330;11.498;2023-03-01T06:12:10;20.40;;;8.70;;
3523;SDS011;1776;53.330;11.498;2023-03-01T06:14:35;17.20;;;9.30;;
3523;SDS011;1776;53.330;11.498;2023-03-01T06:17:00;12.60;;;7.97;;
3523;SDS011;1776;53.330;11.498;2023-03-01T06:19:25;14.77;;;8.27;;
3523;SDS011;1776;53.330;11.498;2023-03-01T06:21:51;15.03;;;7.67;;
3523;SDS011;1776;53.330;11.498;2023-03-01T06:24:16;12.33;;;7.77;;
3523;SDS011;1776;53.330;11.498;2023-03-01T06:26:41;17.23;;;8.87;;
3523;SDS011;1776;53.330;11.498;2023-03-01T06:29:06;13.80;;;7.93;;
3523;SDS011;1776;53.330;11.498;2023-03-01T06:31:33;16.47;;;7.97;;
3523;SDS011;1776;53.330;11.498;2023-03-01T06:33:58;18.40;;;8.60;;
3523;SDS011;1776;53.330;11.498;2023-03-01T06:36:24;9.83;;;6.13;;
3523;SDS011;1776;53.330;11.498;2023-03-01T06:38:49;10.60;;;6.17;;
3523;SDS011;1776;53.330;11.498;2023-03-01T06:41:14;9.20;;;5.50;;
3523;SDS011;1776;53.330;11.498;2023-03-01T06:43:39;8.37;;;5.00;;
3523;SDS011;1776;53.330;11.498;2023-03-01T06:46:05;11.17;;;5.57;;
3523;SDS011;1776;53.330;11.498;2023-03-01T06:48:32;4.63;;;3.57;;
3523;SDS011;1776;53.330;11.498;2023-03-01T06:50:58;7.73;;;4.50;;
3523;SDS011;1776;53.330;11.498;2023-03-01T06:53:25;8.82;;;4.90;;
3523;SDS011;1776;53.330;11.498;2023-03-01T06:55:57;8.80;;;5.20;;
3523;SDS011;1776;53.330;11.498;2023-03-01T06:58:24;9.53;;;4.30;;
3523;SDS011;1776;53.330;11.498;2023-03-01T07:00:50;7.00;;;4.50;;
3523;SDS011;1776;53.330;11.498;2023-03-01T07:03:15;5.77;;;3.90;;
3523;SDS011;1776;53.330;11.498;2023-03-01T07:05:40;6.90;;;4.20;;
3523;SDS011;1776;53.330;11.498;2023-03-01T07:08:06;10.03;;;5.70;;
3523;SDS011;1776;53.330;11.498;2023-03-01T07:10:31;7.63;;;5.37;;
3523;SDS011;1776;53.330;11.498;2023-03-01T07:12:57;8.80;;;4.80;;
3523;SDS011;1776;53.330;11.498;2023-03-01T07:15:23;9.30;;;5.57;;
3523;SDS011;1776;53.330;11.498;2023-03-01T07:17:48;8.13;;;4.73;;
3523;SDS011;1776;53.330;11.498;2023-03-01T07:20:15;8.60;;;5.03;;
3523;SDS011;1776;53.330;11.498;2023-03-01T07:22:41;8.33;;;5.53;;
3523;SDS011;1776;53.330;11.498;2023-03-01T07:25:07;11.40;;;6.07;;
3523;SDS011;1776;53.330;11.498;2023-03-01T07:27:33;8.00;;;6.20;;
3523;SDS011;1776;53.330;11.498;2023-03-01T07:29:58;8.00;;;5.13;;
3523;SDS011;1776;53.330;11.498;2023-03-01T07:32:24;10.13;;;5.90;;
3523;SDS011;1776;53.330;11.498;2023-03-01T07:34:50;10.20;;;6.47;;
3523;SDS011;1776;53.330;11.498;2023-03-01T07:37:16;9.40;;;6.03;;
3523;SDS011;1776;53.330;11.498;2023-03-01T07:39:41;13.83;;;6.20;;
3523;SDS011;1776;53.330;11.498;2023-03-01T07:42:07;12.20;;;6.07;;
3523;SDS011;1776;53.330;11.498;2023-03-01T07:44:32;13.63;;;7.07;;
3523;SDS011;1776;53.330;11.498;2023-03-01T07:46:59;10.00;;;5.80;;
3523;SDS011;1776;53.330;11.498;2023-03-01T07:49:24;12.20;;;6.97;;
3523;SDS011;1776;53.330;11.498;2023-03-01T07:51:51;10.80;;;6.63;;
3523;SDS011;1776;53.330;11.498;2023-03-01T07:54:16;9.37;;;6.43;;
3523;SDS011;1776;53.330;11.498;2023-03-01T07:56:43;11.47;;;7.07;;
3523;SDS011;1776;53.330;11.498;2023-03-01T07:59:08;17.27;;;7.80;;
3523;SDS011;1776;53.330;11.498;2023-03-01T08:01:34;15.57;;;8.20;;
3523;SDS011;1776;53.330;11.498;2023-03-01T08:03:59;11.10;;;7.07;;
3523;SDS011;1776;53.330;11.498;2023-03-01T08:06:24;12.87;;;8.80;;
3523;SDS011;1776;53.330;11.498;2023-03-01T08:08:49;12.47;;;7.97;;
3523;SDS011;1776;53.330;11.498;2023-03-01T08:11:15;14.53;;;9.47;;
3523;SDS011;1776;53.330;11.498;2023-03-01T08:13:41;14.20;;;9.50;;
3523;SDS011;1776;53.330;11.498;2023-03-01T08:16:09;25.57;;;13.13;;
3523;SDS011;1776;53.330;11.498;2023-03-01T08:18:37;14.20;;;11.03;;
3523;SDS011;1776;53.330;11.498;2023-03-01T08:21:04;15.37;;;9.90;;
3523;SDS011;1776;53.330;11.498;2023-03-01T08:23:30;15.53;;;10.40;;
3523;SDS011;1776;53.330;11.498;2023-03-01T08:26:06;14.20;;;8.40;;
3523;SDS011;1776;53.330;11.498;2023-03-01T08:28:34;11.13;;;7.43;;
3523;SDS011;1776;53.330;11.498;2023-03-01T08:31:00;15.00;;;8.33;;
3523;SDS011;1776;53.330;11.498;2023-03-01T08:33:26;11.50;;;8.53;;
3523;SDS011;1776;53.330;11.498;2023-03-01T08:35:52;11.97;;;7.70;;
3523;SDS011;1776;53.330;11.498;2023-03-01T08:38:17;13.43;;;7.80;;
3523;SDS011;1776;53.330;11.498;2023-03-01T08:40:42;10.13;;;6.13;;
3523;SDS011;1776;53.330;11.498;2023-03-01T08:43:08;7.13;;;6.07;;
3523;SDS011;1776;53.330;11.498;2023-03-01T08:45:33;12.03;;;7.10;;
3523;SDS011;1776;53.330;11.498;2023-03-01T08:47:58;9.20;;;6.77;;
3523;SDS011;1776;53.330;11.498;2023-03-01T08:50:23;9.10;;;6.70;;
3523;SDS011;1776;53.330;11.498;2023-03-01T08:52:49;9.30;;;6.70;;
3523;SDS011;1776;53.330;11.498;2023-03-01T08:55:15;12.03;;;6.93;;
3523;SDS011;1776;53.330;11.498;2023-03-01T08:57:42;12.30;;;7.53;;
3523;SDS011;1776;53.330;11.498;2023-03-01T09:00:08;7.77;;;5.53;;
3523;SDS011;1776;53.330;11.498;2023-03-01T09:02:36;10.47;;;7.03;;
3523;SDS011;1776;53.330;11.498;2023-03-01T09:05:01;16.90;;;6.97;;
3523;SDS011;1776;53.330;11.498;2023-03-01T09:07:27;12.90;;;6.30;;
3523;SDS011;1776;53.330;11.498;2023-03-01T09:09:55;10.37;;;6.60;;
3523;SDS011;1776;53.330;11.498;2023-03-01T09:12:20;9.83;;;7.00;;
3523;SDS011;1776;53.330;11.498;2023-03-01T09:14:46;12.50;;;6.47;;
3523;SDS011;1776;53.330;11.498;2023-03-01T09:17:11;9.13;;;6.97;;
3523;SDS011;1776;53.330;11.498;2023-03-01T09:19:37;10.67;;;6.67;;
3523;SDS011;1776;53.330;11.498;2023-03-01T09:22:02;7.83;;;6.67;;
3523;SDS011;1776;53.330;11.498;2023-03-01T09:24:29;9.27;;;6.50;;
3523;SDS011;1776;53.330;11.498;2023-03-01T09:26:54;11.87;;;6.77;;
3523;SDS011;1776;53.330;11.498;2023-03-01T09:29:20;10.10;;;6.23;;
3523;SDS011;1776;53.330;11.498;2023-03-01T09:31:46;10.57;;;6.70;;
3523;SDS011;1776;53.330;11.498;2023-03-01T09:34:11;13.30;;;8.00;;
3523;SDS011;1776;53.330;11.498;2023-03-01T09:36:38;16.40;;;11.27;;
3523;SDS011;1776;53.330;11.498;2023-03-01T09:39:04;14.03;;;9.43;;
3523;SDS011;1776;53.330;11.498;2023-03-01T09:46:55;19.67;;;13.10;;
3523;SDS011;1776;53.330;11.498;2023-03-01T09:49:23;22.20;;;12.23;;
3523;SDS011;1776;53.330;11.498;2023-03-01T09:51:54;24.83;;;12.50;;
3523;SDS011;1776;53.330;11.498;2023-03-01T09:54:23;19.93;;;12.13;;
3523;SDS011;1776;53.330;11.498;2023-03-01T09:56:54;22.20;;;13.20;;
3523;SDS011;1776;53.330;11.498;2023-03-01T09:59:36;24.90;;;13.83;;
3523;SDS011;1776;53.330;11.498;2023-03-01T10:04:54;22.10;;;12.27;;
3523;SDS011;1776;53.330;11.498;2023-03-01T10:10:36;20.37;;;11.90;;
3523;SDS011;1776;53.330;11.498;2023-03-01T10:13:15;25.60;;;15.03;;
3523;SDS011;1776;53.330;11.498;2023-03-01T10:15:50;19.40;;;13.07;;
3523;SDS011;1776;53.330;11.498;2023-03-01T10:18:29;24.40;;;15.07;;
3523;SDS011;1776;53.330;11.498;2023-03-01T10:20:58;23.03;;;13.37;;
3523;SDS011;1776;53.330;11.498;2023-03-01T10:23:26;21.97;;;13.07;;
3523;SDS011;1776;53.330;11.498;2023-03-01T10:31:06;24.27;;;14.30;;
3523;SDS011;1776;53.330;11.498;2023-03-01T10:33:38;21.17;;;12.97;;
3523;SDS011;1776;53.330;11.498;2023-03-01T10:36:06;25.00;;;13.93;;
3523;SDS011;1776;53.330;11.498;2023-03-01T10:38:46;27.43;;;15.47;;
3523;SDS011;1776;53.330;11.498;2023-03-01T10:41:18;26.67;;;15.93;;
3523;SDS011;1776;53.330;11.498;2023-03-01T10:43:48;28.43;;;14.17;;
3523;SDS011;1776;53.330;11.498;2023-03-01T10:46:26;24.80;;;15.40;;
3523;SDS011;1776;53.330;11.498;2023-03-01T10:49:15;29.20;;;14.77;;
3523;SDS011;1776;53.330;11.498;2023-03-01T10:51:47;26.27;;;14.73;;
3523;SDS011;1776;53.330;11.498;2023-03-01T10:54:20;23.83;;;13.27;;
3523;SDS011;1776;53.330;11.498;2023-03-01T10:56:48;27.30;;;15.23;;
3523;SDS011;1776;53.330;11.498;2023-03-01T10:59:27;23.37;;;15.47;;
3523;SDS011;1776;53.330;11.498;2023-03-01T11:02:15;22.50;;;14.70;;
3523;SDS011;1776;53.330;11.498;2023-03-01T11:04:58;27.13;;;15.70;;
3523;SDS011;1776;53.330;11.498;2023-03-01T11:10:21;29.80;;;17.37;;
3523;SDS011;1776;53.330;11.498;2023-03-01T11:12:51;33.60;;;18.90;;
3523;SDS011;1776;53.330;11.498;2023-03-01T11:15:21;29.50;;;18.57;;
3523;SDS011;1776;53.330;11.498;2023-03-01T11:17:49;29.50;;;17.57;;
3523;SDS011;1776;53.330;11.498;2023-03-01T11:20:18;29.90;;;19.47;;
3523;SDS011;1776;53.330;11.498;2023-03-01T11:23:01;27.80;;;18.30;;
3523;SDS011;1776;53.330;11.498;2023-03-01T11:25:33;46.07;;;35.17;;
3523;SDS011;1776;53.330;11.498;2023-03-01T11:28:02;50.30;;;31.50;;
3523;SDS011;1776;53.330;11.498;2023-03-01T11:36:00;25.90;;;16.90;;
3523;SDS011;1776;53.330;11.498;2023-03-01T11:38:29;29.27;;;16.53;;
3523;SDS011;1776;53.330;11.498;2023-03-01T11:41:00;29.03;;;15.93;;
3523;SDS011;1776;53.330;11.498;2023-03-01T12:25:28;23.60;;;15.87;;
3523;SDS011;1776;53.330;11.498;2023-03-01T12:42:24;16.53;;;12.50;;
3523;SDS011;1776;53.330;11.498;2023-03-01T12:50:50;18.40;;;12.70;;
3523;SDS011;1776;53.330;11.498;2023-03-01T12:53:22;19.37;;;13.40;;
3523;SDS011;1776;53.330;11.498;2023-03-01T13:09:39;19.10;;;12.87;;
3523;SDS011;1776;53.330;11.498;2023-03-01T13:17:48;18.07;;;11.33;;
3523;SDS011;1776;53.330;11.498;2023-03-01T13:20:19;15.77;;;12.90;;
3523;SDS011;1776;53.330;11.498;2023-03-01T13:22:48;14.70;;;11.80;;
3523;SDS011;1776;53.330;11.498;2023-03-01T13:25:30;21.90;;;13.80;;
3523;SDS011;1776;53.330;11.498;2023-03-01T13:31:10;13.40;;;9.37;;
3523;SDS011;1776;53.330;11.498;2023-03-01T13:33:55;15.00;;;11.10;;
3523;SDS011;1776;53.330;11.498;2023-03-01T13:44:11;16.17;;;10.73;;
3523;SDS011;1776;53.330;11.498;2023-03-01T13:46:52;16.97;;;12.17;;
3523;SDS011;1776;53.330;11.498;2023-03-01T13:49:25;19.67;;;13.60;;
3523;SDS011;1776;53.330;11.498;2023-03-01T13:51:53;14.30;;;9.30;;
3523;SDS011;1776;53.330;11.498;2023-03-01T13:54:24;17.67;;;10.43;;
3523;SDS011;1776;53.330;11.498;2023-03-01T13:56:52;23.37;;;16.63;;
3523;SDS011;1776;53.330;11.498;2023-03-01T13:59:20;20.10;;;13.27;;
3523;SDS011;1776;53.330;11.498;2023-03-01T14:01:53;11.60;;;9.53;;
3523;SDS011;1776;53.330;11.498;2023-03-01T14:04:24;10.43;;;8.30;;
3523;SDS011;1776;53.330;11.498;2023-03-01T14:09:43;11.70;;;8.63;;
3523;SDS011;1776;53.330;11.498;2023-03-01T14:12:14;12.13;;;9.10;;
3523;SDS011;1776;53.330;11.498;2023-03-01T14:17:28;17.73;;;11.43;;
3523;SDS011;1776;53.330;11.498;2023-03-01T14:20:16;12.63;;;9.33;;
3523;SDS011;1776;53.330;11.498;2023-03-01T14:22:44;11.90;;;9.17;;
3523;SDS011;1776;53.330;11.498;2023-03-01T14:25:21;11.40;;;9.13;;
3523;SDS011;1776;53.330;11.498;2023-03-01T14:27:59;14.83;;;10.40;;
3523;SDS011;1776;53.330;11.498;2023-03-01T14:33:16;15.07;;;9.63;;
3523;SDS011;1776;53.330;11.498;2023-03-01T14:35:51;27.47;;;17.87;;
3523;SDS011;1776;53.330;11.498;2023-03-01T14:38:21;33.73;;;18.50;;
3523;SDS011;1776;53.330;11.498;2023-03-01T14:40:48;16.30;;;11.07;;
3523;SDS011;1776;53.330;11.498;2023-03-01T14:43:18;13.10;;;9.30;;
3523;SDS011;1776;53.330;11.498;2023-03-01T14:45:48;12.43;;;8.90;;
3523;SDS011;1776;53.330;11.498;2023-03-01T14:48:15;15.17;;;10.77;;
3523;SDS011;1776;53.330;11.498;2023-03-01T14:50:41;14.03;;;9.60;;
3523;SDS011;1776;53.330;11.498;2023-03-01T14:53:07;14.03;;;8.37;;
3523;SDS011;1776;53.330;11.498;2023-03-01T14:55:43;13.83;;;8.03;;
3523;SDS011;1776;53.330;11.498;2023-03-01T14:58:14;14.70;;;8.60;;
3523;SDS011;1776;53.330;11.498;2023-03-01T15:00:49;12.30;;;8.63;;
3523;SDS011;1776;53.330;11.498;2023-03-01T15:03:23;14.97;;;8.73;;
3523;SDS011;1776;53.330;11.498;2023-03-01T15:05:52;12.13;;;8.20;;
3523;SDS011;1776;53.330;11.498;2023-03-01T15:08:23;13.37;;;9.07;;
3523;SDS011;1776;53.330;11.498;2023-03-01T15:11:04;13.43;;;7.60;;
3523;SDS011;1776;53.330;11.498;2023-03-01T15:13:32;12.73;;;8.10;;
3523;SDS011;1776;53.330;11.498;2023-03-01T15:16:02;18.77;;;11.73;;
3523;SDS011;1776;53.330;11.498;2023-03-01T15:18:29;18.00;;;12.40;;
3523;SDS011;1776;53.330;11.498;2023-03-01T15:20:54;17.90;;;10.47;;
3523;SDS011;1776;53.330;11.498;2023-03-01T15:23:24;19.23;;;11.43;;
3523;SDS011;1776;53.330;11.498;2023-03-01T15:25:52;24.67;;;16.90;;
3523;SDS011;1776;53.330;11.498;2023-03-01T15:28:24;12.30;;;8.50;;
3523;SDS011;1776;53.330;11.498;2023-03-01T15:31:00;14.07;;;9.93;;
3523;SDS011;1776;53.330;11.498;2023-03-01T15:33:29;19.80;;;13.17;;
3523;SDS011;1776;53.330;11.498;2023-03-01T15:35:59;19.93;;;10.50;;
3523;SDS011;1776;53.330;11.498;2023-03-01T15:44:28;16.67;;;10.07;;
3523;SDS011;1776;53.330;11.498;2023-03-01T15:46:55;12.10;;;8.40;;
3523;SDS011;1776;53.330;11.498;2023-03-01T15:49:40;13.27;;;7.97;;
3523;SDS011;1776;53.330;11.498;2023-03-01T15:52:12;13.30;;;7.90;;
3523;SDS011;1776;53.330;11.498;2023-03-01T15:54:45;10.60;;;6.70;;
3523;SDS011;1776;53.330;11.498;2023-03-01T15:57:14;9.53;;;6.63;;
3523;SDS011;1776;53.330;11.498;2023-03-01T15:59:40;11.10;;;6.90;;
3523;SDS011;1776;53.330;11.498;2023-03-01T16:02:10;11.03;;;7.00;;
3523;SDS011;1776;53.330;11.498;2023-03-01T16:04:37;8.03;;;6.23;;
3523;SDS011;1776;53.330;11.498;2023-03-01T16:07:03;12.40;;;7.40;;
3523;SDS011;1776;53.330;11.498;2023-03-01T16:09:29;13.20;;;8.10;;
3523;SDS011;1776;53.330;11.498;2023-03-01T16:11:54;13.13;;;7.27;;
3523;SDS011;1776;53.330;11.498;2023-03-01T16:14:20;11.10;;;6.20;;
3523;SDS011;1776;53.330;11.498;2023-03-01T16:16:46;10.10;;;6.87;;
3523;SDS011;1776;53.330;11.498;2023-03-01T16:19:13;11.17;;;7.37;;
3523;SDS011;1776;53.330;11.498;2023-03-01T16:21:38;14.20;;;10.20;;
3523;SDS011;1776;53.330;11.498;2023-03-01T16:24:04;18.03;;;11.47;;
3523;SDS011;1776;53.330;11.498;2023-03-01T16:26:30;22.70;;;13.27;;
3523;SDS011;1776;53.330;11.498;2023-03-01T16:28:55;26.70;;;15.73;;
3523;SDS011;1776;53.330;11.498;2023-03-01T16:31:22;28.53;;;17.30;;
3523;SDS011;1776;53.330;11.498;2023-03-01T16:33:48;30.97;;;20.00;;
3523;SDS011;1776;53.330;11.498;2023-03-01T16:36:18;31.20;;;19.30;;
3523;SDS011;1776;53.330;11.498;2023-03-01T16:38:49;37.83;;;22.37;;
3523;SDS011;1776;53.330;11.498;2023-03-01T16:41:16;33.80;;;21.90;;
3523;SDS011;1776;53.330;11.498;2023-03-01T16:43:42;37.13;;;23.10;;
3523;SDS011;1776;53.330;11.498;2023-03-01T16:46:12;38.10;;;23.43;;
3523;SDS011;1776;53.330;11.498;2023-03-01T16:48:42;40.30;;;23.60;;
3523;SDS011;1776;53.330;11.498;2023-03-01T16:51:07;45.40;;;28.30;;
3523;SDS011;1776;53.330;11.498;2023-03-01T16:53:33;57.30;;;30.83;;
3523;SDS011;1776;53.330;11.498;2023-03-01T16:56:01;50.70;;;26.93;;
3523;SDS011;1776;53.330;11.498;2023-03-01T16:58:28;46.73;;;24.60;;
3523;SDS011;1776;53.330;11.498;2023-03-01T17:00:54;41.67;;;25.70;;
3523;SDS011;1776;53.330;11.498;2023-03-01T17:03:21;40.37;;;24.90;;
3523;SDS011;1776;53.330;11.498;2023-03-01T17:05:48;36.40;;;22.00;;
3523;SDS011;1776;53.330;11.498;2023-03-01T17:08:13;33.93;;;20.10;;
3523;SDS011;1776;53.330;11.498;2023-03-01T17:10:39;38.93;;;21.47;;
3523;SDS011;1776;53.330;11.498;2023-03-01T17:13:06;35.83;;;20.80;;